Time;durP1;ratioP1;P1;durP2;ratioP2;P2;SDS_P1;SDS_P2;PMS_P1;PMS_P2;Temp;Humidity;BMP_temperature;BMP_pressure;BME280_temperature;BME280_humidity;BME280_pressure;Samples;Min_cycle;Max_cycle;Signal;HPM_P1;HPM_P2
2022/01/10 00:01:08;;;;;;;18.70;7.50;;;;;;;4.05;90.34;100986.25;5030463;28;20049;-53
2022/01/10 00:03:36;;;;;;;19.30;7.57;;;;;;;4.04;90.95;100982.75;5032134;28;20096;-57
2022/01/10 00:06:03;;;;;;;17.45;7.45;;;;;;;4.05;90.06;100986.25;5033179;28;20050;-54
2022/01/10 00:08:31;;;;;;;17.15;7.60;;;;;;;4.03;90.58;100985.66;5031801;28;20048;-52
2022/01/10 00:10:59;;;;;;;17.35;6.88;;;;;;;4.03;90.60;100985.66;5031759;28;20049;-53
2022/01/10 00:13:26;;;;;;;13.13;6.60;;;;;;;4.04;90.87;100987.28;5032099;28;20046;-55
2022/01/10 00:15:54;;;;;;;16.30;6.20;;;;;;;4.05;90.46;100991.66;5035665;28;20052;-52
2022/01/10 00:18:21;;;;;;;15.52;7.43;;;;;;;4.05;90.58;100994.34;5035814;28;20080;-51
2022/01/10 00:20:49;;;;;;;17.20;6.72;;;;;;;4.07;90.90;101003.03;5036132;28;20048;-51
2022/01/10 00:23:17;;;;;;;14.75;6.88;;;;;;;4.05;90.28;101016.72;5036169;28;20038;-51
2022/01/10 00:25:44;;;;;;;20.98;7.13;;;;;;;4.05;90.21;101024.00;5035889;28;20061;-53
2022/01/10 00:28:12;;;;;;;17.90;6.75;;;;;;;4.03;90.69;101016.13;5034352;28;20041;-49
2022/01/10 00:30:39;;;;;;;16.70;7.45;;;;;;;4.03;90.40;101028.78;5034929;28;20037;-49
2022/01/10 00:33:07;;;;;;;18.27;7.40;;;;;;;3.99;90.55;101014.94;5035188;28;20054;-54
2022/01/10 00:35:35;;;;;;;16.88;7.40;;;;;;;3.99;90.86;101027.56;5034361;28;20049;-50
2022/01/10 00:38:02;;;;;;;16.50;7.50;;;;;;;3.98;90.01;101034.00;5034334;28;20440;-50
2022/01/10 00:40:30;;;;;;;16.90;7.28;;;;;;;3.95;90.47;101032.59;5034601;28;20055;-50
2022/01/10 00:42:58;;;;;;;15.82;7.60;;;;;;;3.94;90.89;101032.78;5033915;28;20499;-49
2022/01/10 00:45:27;;;;;;;16.27;7.13;;;;;;;3.97;90.66;101040.44;5035683;28;20131;-46
2022/01/10 00:47:57;;;;;;;15.90;7.50;;;;;;;3.98;90.80;101034.84;5034916;28;20076;-49
2022/01/10 00:50:26;;;;;;;16.73;7.70;;;;;;;3.98;90.52;101037.53;5034244;28;20046;-50
2022/01/10 00:52:54;;;;;;;17.35;7.57;;;;;;;4.00;90.69;101037.31;5034124;28;20552;-50
2022/01/10 00:55:22;;;;;;;19.52;7.07;;;;;;;4.00;90.24;101042.72;5018056;28;20037;-50
2022/01/10 00:57:50;;;;;;;16.08;7.65;;;;;;;3.96;89.65;101041.50;5034566;28;20111;-52
2022/01/10 01:00:18;;;;;;;14.38;6.72;;;;;;;3.90;89.33;101047.78;5033816;28;20049;-50
2022/01/10 01:02:46;;;;;;;19.08;8.02;;;;;;;3.81;88.43;101053.41;5034734;28;20108;-50
2022/01/10 01:05:16;;;;;;;17.88;7.78;;;;;;;3.76;89.16;101064.00;5033824;28;20049;-50
2022/01/10 01:07:44;;;;;;;16.15;7.45;;;;;;;3.73;89.42;101075.25;5034238;28;20046;-51
2022/01/10 01:13:24;;;;;;;14.95;7.03;;;;;;;3.74;89.68;101084.97;5031364;28;20060;-46
2022/01/10 01:24:08;;;;;;;14.80;7.28;;;;;;;3.83;89.82;101097.13;5033121;28;20049;-52
2022/01/10 01:26:44;;;;;;;19.83;7.82;;;;;;;3.82;89.36;101111.69;5033757;28;20049;-51
2022/01/10 01:29:16;;;;;;;13.90;7.63;;;;;;;3.78;88.95;101101.53;5017194;28;20046;-55
2022/01/10 01:31:44;;;;;;;19.63;8.32;;;;;;;3.72;88.75;101110.47;5026645;28;20176;-52
2022/01/10 01:34:14;;;;;;;19.65;8.63;;;;;;;3.65;88.96;101121.28;5032979;28;20137;-46
2022/01/10 01:36:46;;;;;;;19.58;8.73;;;;;;;3.57;88.16;101125.06;5033457;28;20500;-46
2022/01/10 01:39:21;;;;;;;16.33;7.75;;;;;;;3.51;88.51;101125.06;5033324;28;20049;-52
2022/01/10 01:42:03;;;;;;;15.60;7.38;;;;;;;3.48;88.65;101133.59;5032768;28;20064;-51
2022/01/10 01:44:32;;;;;;;16.38;7.68;;;;;;;3.46;89.59;101130.28;5013663;28;20081;-51
2022/01/10 01:47:00;;;;;;;15.98;7.88;;;;;;;3.47;89.62;101145.41;5013219;28;20045;-50
2022/01/10 01:49:29;;;;;;;17.23;8.40;;;;;;;3.48;89.73;101155.13;5013536;28;20045;-49
2022/01/10 01:51:56;;;;;;;17.98;8.27;;;;;;;3.51;89.58;101154.69;5017374;28;20183;-47
2022/01/10 01:54:24;;;;;;;17.23;7.72;;;;;;;3.56;89.62;101149.50;5033062;28;20092;-51
2022/01/10 01:56:52;;;;;;;17.80;8.00;;;;;;;3.59;89.45;101149.09;5034431;28;20044;-48
2022/01/10 01:59:20;;;;;;;18.75;8.52;;;;;;;3.59;89.53;101146.41;5033155;28;20072;-48
2022/01/10 02:01:47;;;;;;;17.98;8.40;;;;;;;3.61;89.57;101157.78;5032769;28;20069;-46
2022/01/10 02:04:47;;;;;;;18.50;9.02;;;;;;;3.64;90.04;101160.06;4979869;28;20124;-49
2022/01/10 02:07:17;;;;;;;17.13;9.15;;;;;;;3.66;89.92;101166.06;4973138;28;20074;-50
2022/01/10 02:09:45;;;;;;;18.35;8.50;;;;;;;3.67;90.28;101170.41;4973316;28;20049;-50
2022/01/10 02:12:14;;;;;;;15.93;8.32;;;;;;;3.68;89.93;101169.38;4945963;28;20050;-48
2022/01/10 02:14:47;;;;;;;18.83;9.02;;;;;;;3.67;89.60;101173.09;4973817;28;20043;-51
2022/01/10 02:17:21;;;;;;;18.65;7.88;;;;;;;3.64;89.91;101173.53;4972695;28;20398;-50
2022/01/10 02:19:58;;;;;;;17.73;8.55;;;;;;;3.62;89.73;101176.44;4963741;28;20082;-48
2022/01/10 02:22:30;;;;;;;17.80;8.32;;;;;;;3.62;89.88;101186.38;4990768;28;20052;-50
2022/01/10 02:25:24;;;;;;;18.48;8.63;;;;;;;3.61;89.92;101185.56;5032675;28;20130;-47
2022/01/10 02:27:53;;;;;;;17.20;9.13;;;;;;;3.60;90.30;101196.53;5032723;28;20420;-49
2022/01/10 02:30:21;;;;;;;18.77;8.60;;;;;;;3.61;90.36;101190.13;5032447;28;20041;-50
2022/01/10 02:32:49;;;;;;;20.40;8.70;;;;;;;3.63;90.88;101188.88;5031679;28;20057;-49
2022/01/10 02:35:23;;;;;;;18.02;8.35;;;;;;;3.65;90.21;101196.72;5032082;28;20049;-51
2022/01/10 02:37:53;;;;;;;17.75;8.75;;;;;;;3.65;90.19;101206.69;5033372;28;20050;-51
2022/01/10 02:40:23;;;;;;;16.42;8.75;;;;;;;3.64;89.52;101211.25;5032473;28;20049;-52
2022/01/10 02:42:52;;;;;;;20.50;9.52;;;;;;;3.64;90.25;101213.94;5031884;28;20056;-51
2022/01/10 02:45:20;;;;;;;18.55;8.98;;;;;;;3.65;89.81;101220.16;5033057;28;20052;-55
2022/01/10 02:47:48;;;;;;;17.45;8.43;;;;;;;3.65;89.17;101222.84;5032026;28;20042;-47
2022/01/10 02:50:17;;;;;;;16.63;8.68;;;;;;;3.57;88.90;101226.59;5032230;28;20141;-49
2022/01/10 02:52:46;;;;;;;22.35;9.85;;;;;;;3.51;88.75;101238.22;5032196;28;20045;-49
2022/01/10 02:55:14;;;;;;;20.38;8.77;;;;;;;3.47;89.76;101237.81;5031810;28;20050;-51
2022/01/10 02:57:41;;;;;;;16.33;8.70;;;;;;;3.51;90.57;101240.91;5034011;28;20048;-54
2022/01/10 03:00:15;;;;;;;20.58;8.95;;;;;;;3.53;90.09;101249.63;5033902;28;20049;-50
2022/01/10 03:02:44;;;;;;;17.27;8.73;;;;;;;3.55;90.40;101255.63;5032642;28;20041;-50
2022/01/10 03:05:12;;;;;;;16.15;8.77;;;;;;;3.54;89.75;101260.19;5031979;28;20052;-48
2022/01/10 03:07:40;;;;;;;17.63;8.82;;;;;;;3.56;89.89;101258.13;5032930;28;20400;-50
2022/01/10 03:10:08;;;;;;;20.88;9.82;;;;;;;3.55;89.89;101259.13;5032872;28;20037;-50
2022/01/10 03:12:36;;;;;;;19.27;8.68;;;;;;;3.56;89.97;101265.34;5031584;28;20041;-49
2022/01/10 03:15:07;;;;;;;21.05;9.43;;;;;;;3.55;89.32;101266.41;5031071;28;20483;-50
2022/01/10 03:17:36;;;;;;;18.13;9.60;;;;;;;3.51;88.99;101270.53;5030497;28;20145;-51
2022/01/10 03:20:07;;;;;;;16.85;9.00;;;;;;;3.42;89.01;101278.84;5015452;28;20045;-52
2022/01/10 03:22:34;;;;;;;18.95;8.80;;;;;;;3.39;89.27;101279.28;5032914;28;20068;-50
2022/01/10 03:25:02;;;;;;;17.90;9.32;;;;;;;3.38;89.26;101276.78;5033199;28;20404;-51
2022/01/10 03:27:32;;;;;;;21.67;9.23;;;;;;;3.38;89.97;101288.38;5031052;28;20068;-50
2022/01/10 03:30:00;;;;;;;17.08;9.73;;;;;;;3.40;89.73;101293.56;5031314;28;20038;-51
2022/01/10 03:32:28;;;;;;;19.73;9.13;;;;;;;3.39;89.63;101302.66;5031319;28;20053;-49
2022/01/10 03:35:05;;;;;;;17.40;8.90;;;;;;;3.39;90.34;101300.84;5045807;28;20183;-50
2022/01/10 03:37:33;;;;;;;24.55;10.05;;;;;;;3.42;90.02;101300.41;5031519;28;20038;-51
2022/01/10 03:40:00;;;;;;;18.23;9.02;;;;;;;3.41;90.42;101309.50;5032956;28;20053;-48
2022/01/10 03:42:29;;;;;;;20.27;10.73;;;;;;;3.42;90.41;101326.53;5031448;28;20076;-50
2022/01/10 03:44:57;;;;;;;18.88;9.30;;;;;;;3.42;89.94;101321.94;5031207;28;20191;-52
2022/01/10 03:47:25;;;;;;;19.08;8.73;;;;;;;3.44;89.92;101328.97;5033550;28;20136;-52
2022/01/10 03:49:53;;;;;;;22.38;10.38;;;;;;;3.44;90.34;101337.06;5035382;28;20041;-49
2022/01/10 03:52:22;;;;;;;19.67;10.45;;;;;;;3.41;89.21;101344.53;5035737;28;20450;-50
2022/01/10 03:54:51;;;;;;;17.73;9.13;;;;;;;3.36;89.55;101340.81;5035048;28;20450;-50
2022/01/10 03:57:18;;;;;;;15.05;8.10;;;;;;;3.33;89.35;101344.75;5035493;28;20041;-50
2022/01/10 03:59:47;;;;;;;17.35;9.32;;;;;;;3.34;90.21;101346.41;5035362;28;20045;-49
2022/01/10 04:02:15;;;;;;;21.73;10.18;;;;;;;3.33;89.61;101352.00;5035300;28;20053;-49
2022/01/10 04:04:43;;;;;;;15.90;8.38;;;;;;;3.34;90.27;101359.03;5036052;28;20507;-46
2022/01/10 04:07:14;;;;;;;20.35;8.88;;;;;;;3.34;90.39;101359.03;5036233;28;20076;-50
2022/01/10 04:09:41;;;;;;;16.17;8.55;;;;;;;3.34;90.37;101353.66;5034917;28;20496;-49
2022/01/10 04:12:09;;;;;;;17.15;8.52;;;;;;;3.34;90.06;101361.72;5034818;28;20127;-48
2022/01/10 04:14:37;;;;;;;20.65;8.35;;;;;;;3.33;90.05;101368.97;5035121;28;20084;-49
2022/01/10 04:17:04;;;;;;;20.27;9.25;;;;;;;3.33;90.71;101360.91;5034100;28;20061;-53
2022/01/10 04:19:34;;;;;;;18.23;7.25;;;;;;;3.34;90.70;101359.88;5034356;28;20080;-49
2022/01/10 04:22:03;;;;;;;18.65;8.10;;;;;;;3.34;90.63;101384.13;5036308;28;20045;-49
2022/01/10 04:24:32;;;;;;;15.10;8.60;;;;;;;3.36;90.59;101391.97;5034928;28;20057;-46
2022/01/10 04:27:00;;;;;;;23.85;8.65;;;;;;;3.37;90.63;101389.09;5036161;28;20510;-54
2022/01/10 04:29:27;;;;;;;18.90;9.15;;;;;;;3.36;90.16;101387.41;5036647;28;20073;-54
2022/01/10 04:31:56;;;;;;;15.27;8.32;;;;;;;3.36;90.82;101402.75;5034538;28;20144;-50
2022/01/10 04:34:24;;;;;;;16.50;8.18;;;;;;;3.39;90.66;101405.03;5034190;28;20087;-49
2022/01/10 04:36:51;;;;;;;15.88;7.93;;;;;;;3.40;90.59;101410.22;5035445;28;20052;-51
2022/01/10 04:39:19;;;;;;;19.20;8.50;;;;;;;3.41;90.67;101419.94;5034394;28;20080;-50
2022/01/10 04:41:46;;;;;;;19.67;9.10;;;;;;;3.41;90.32;101411.88;5034516;28;20072;-52
2022/01/10 04:44:14;;;;;;;20.42;10.10;;;;;;;3.40;91.02;101425.56;5034816;28;20048;-51
2022/01/10 04:46:42;;;;;;;21.83;10.30;;;;;;;3.42;90.36;101439.66;5034494;28;20049;-53
2022/01/10 04:49:17;;;;;;;21.17;10.65;;;;;;;3.39;90.40;101440.91;5033530;28;20167;-51
2022/01/10 04:51:45;;;;;;;19.07;9.07;;;;;;;3.37;90.41;101439.44;5031021;28;20042;-50
2022/01/10 04:54:13;;;;;;;20.60;10.13;;;;;;;3.37;90.97;101442.97;5015782;28;20034;-48
2022/01/10 04:56:40;;;;;;;20.65;10.52;;;;;;;3.39;90.64;101462.44;5015587;28;20408;-47
2022/01/10 04:59:08;;;;;;;25.85;10.02;;;;;;;3.37;90.66;101461.81;5025928;28;20048;-50
2022/01/10 05:01:36;;;;;;;20.25;8.88;;;;;;;3.37;90.61;101469.06;5033489;28;20511;-49
2022/01/10 05:04:05;;;;;;;18.80;8.73;;;;;;;3.38;91.55;101468.84;5033998;28;20077;-49
2022/01/10 05:06:32;;;;;;;18.92;9.15;;;;;;;3.41;91.63;101476.50;5034275;28;20049;-49
2022/01/10 05:09:00;;;;;;;21.10;10.32;;;;;;;3.43;91.49;101484.41;5033508;28;20492;-50
2022/01/10 05:11:43;;;;;;;20.88;8.70;;;;;;;3.44;91.34;101496.84;5033731;28;20111;-51
2022/01/10 05:14:11;;;;;;;19.77;9.57;;;;;;;3.44;91.41;101493.31;5034209;28;20045;-52
2022/01/10 05:16:40;;;;;;;17.80;9.38;;;;;;;3.44;90.92;101496.84;5033750;28;20136;-51
2022/01/10 05:19:09;;;;;;;21.58;9.55;;;;;;;3.47;90.63;101504.53;5033363;28;20128;-53
2022/01/10 05:21:39;;;;;;;21.17;9.85;;;;;;;3.46;91.02;101496.63;5033245;28;20523;-53
2022/01/10 05:24:08;;;;;;;17.63;9.73;;;;;;;3.44;91.03;101506.78;5033842;28;20044;-50
2022/01/10 05:26:37;;;;;;;20.88;9.55;;;;;;;3.41;91.10;101518.78;5033663;28;20053;-52
2022/01/10 05:29:06;;;;;;;20.00;10.27;;;;;;;3.39;90.70;101515.47;5032438;28;20049;-51
2022/01/10 05:31:35;;;;;;;17.48;9.00;;;;;;;3.40;91.58;101525.22;5032968;28;20073;-54
2022/01/10 05:34:15;;;;;;;20.02;10.00;;;;;;;3.40;91.48;101530.59;5033466;28;20468;-50
2022/01/10 05:36:42;;;;;;;19.20;9.50;;;;;;;3.36;91.25;101538.25;5034603;28;20033;-53
2022/01/10 05:39:10;;;;;;;20.42;10.20;;;;;;;3.36;91.03;101548.19;5033324;28;20045;-53
2022/01/10 05:41:38;;;;;;;19.75;10.00;;;;;;;3.31;91.59;101551.50;5034430;28;20448;-50
2022/01/10 05:44:06;;;;;;;23.15;11.00;;;;;;;3.32;91.76;101555.88;5017214;28;20136;-51
2022/01/10 05:46:41;;;;;;;22.38;11.20;;;;;;;3.28;91.44;101562.69;5033497;28;20121;-47
2022/01/10 05:49:18;;;;;;;19.20;10.88;;;;;;;3.24;92.37;101566.81;5033307;28;20431;-50
2022/01/10 05:51:46;;;;;;;19.83;10.88;;;;;;;3.22;92.44;101568.84;5033153;28;20046;-51
2022/01/10 05:54:31;;;;;;;22.65;10.73;;;;;;;3.22;92.49;101571.56;5030048;28;20042;-47
2022/01/10 05:57:01;;;;;;;19.42;9.95;;;;;;;3.22;92.98;101576.94;5013283;28;20501;-49
2022/01/10 05:59:31;;;;;;;22.58;9.88;;;;;;;3.24;92.83;101569.50;5032158;28;20152;-48
2022/01/10 06:02:02;;;;;;;19.83;10.38;;;;;;;3.28;92.61;101570.75;5032731;28;20357;-49
2022/01/10 06:04:31;;;;;;;22.48;10.32;;;;;;;3.30;91.87;101576.78;5032488;28;20447;-49
2022/01/10 06:07:07;;;;;;;25.52;11.13;;;;;;;3.29;91.94;101577.78;5032704;28;20065;-51
2022/01/10 06:09:35;;;;;;;21.38;10.30;;;;;;;3.30;92.31;101586.72;5032673;28;20124;-51
2022/01/10 06:12:03;;;;;;;20.67;10.27;;;;;;;3.27;92.69;101593.34;5031819;28;20049;-51
2022/01/10 06:14:31;;;;;;;17.23;8.57;;;;;;;3.27;92.74;101585.28;5032450;28;20403;-49
2022/01/10 06:16:59;;;;;;;20.90;9.25;;;;;;;3.27;92.26;101585.28;5032985;28;20046;-49
2022/01/10 06:19:27;;;;;;;16.13;8.75;;;;;;;3.27;92.69;101587.97;5032329;28;20056;-45
2022/01/10 06:21:55;;;;;;;19.20;8.82;;;;;;;3.30;92.47;101603.72;5032356;28;20044;-51
2022/01/10 06:24:22;;;;;;;16.63;8.77;;;;;;;3.31;93.00;101612.63;5032110;28;20095;-53
2022/01/10 06:26:50;;;;;;;17.88;7.82;;;;;;;3.35;93.03;101614.72;5032681;28;20049;-53
2022/01/10 06:29:18;;;;;;;18.20;7.22;;;;;;;3.40;94.38;101620.31;5032139;28;20042;-52
2022/01/10 06:31:46;;;;;;;17.25;8.00;;;;;;;3.52;96.90;101617.88;5032412;28;20053;-50
2022/01/10 06:34:18;;;;;;;17.55;7.85;;;;;;;3.54;95.88;101629.31;5032316;28;20119;-51
2022/01/10 06:36:47;;;;;;;19.38;8.90;;;;;;;3.49;95.07;101634.47;5031243;28;20049;-46
2022/01/10 06:39:16;;;;;;;22.48;9.95;;;;;;;3.45;94.71;101645.84;5016236;28;20518;-48
2022/01/10 06:41:46;;;;;;;17.80;8.48;;;;;;;3.42;94.44;101655.97;5031814;28;20052;-49
2022/01/10 06:44:14;;;;;;;14.80;7.82;;;;;;;3.45;94.67;101664.69;5031799;28;20049;-48
2022/01/10 06:46:42;;;;;;;18.23;9.07;;;;;;;3.44;94.43;101663.88;5032286;28;20053;-49
2022/01/10 06:49:10;;;;;;;18.48;8.13;;;;;;;3.46;94.26;101663.66;5031838;28;20042;-49
2022/01/10 06:51:38;;;;;;;20.85;9.20;;;;;;;3.43;93.66;101667.59;5032775;28;20048;-49
2022/01/10 06:54:05;;;;;;;19.60;9.45;;;;;;;3.42;93.87;101672.16;4322837;28;10000503;-53
2022/01/10 06:56:34;;;;;;;15.05;7.57;;;;;;;3.44;93.90;101679.19;5029524;28;20037;-50
2022/01/10 06:59:02;;;;;;;14.65;6.70;;;;;;;3.55;97.88;101681.31;5030367;28;20492;-48
2022/01/10 07:01:39;;;;;;;17.38;7.72;;;;;;;3.52;96.01;101681.72;5014536;28;20086;-49
2022/01/10 07:04:09;;;;;;;19.48;8.43;;;;;;;3.51;96.56;101691.69;5030102;28;20050;-47
2022/01/10 07:06:38;;;;;;;16.75;7.78;;;;;;;3.54;97.94;101703.91;5029065;28;20107;-50
2022/01/10 07:09:12;;;;;;;18.42;8.00;;;;;;;3.55;98.41;101703.69;5030236;28;20049;-50
2022/01/10 07:11:48;;;;;;;;;;;;;;;3.56;99.82;101707.22;5026005;28;20499;-48
2022/01/10 07:14:17;;;;;;;19.58;10.30;;;;;;;3.49;95.89;101720.69;5029738;28;19994;-47
2022/01/10 07:16:49;;;;;;;30.80;12.27;;;;;;;3.40;94.80;101724.56;5010397;28;20096;-53
2022/01/10 07:19:18;;;;;;;21.60;10.38;;;;;;;3.34;95.44;101728.03;5011219;28;20057;-51
2022/01/10 07:21:48;;;;;;;21.38;10.30;;;;;;;3.37;96.23;101739.25;5029511;28;20504;-55
2022/01/10 07:24:16;;;;;;;19.30;9.63;;;;;;;3.40;94.84;101743.41;5029981;28;20045;-54
2022/01/10 07:26:44;;;;;;;14.63;6.90;;;;;;;3.46;97.94;101755.25;5031257;28;20046;-51
2022/01/10 07:29:12;;;;;;;14.50;7.30;;;;;;;3.55;99.63;101743.28;5011245;28;20437;-56
2022/01/10 07:31:41;;;;;;;18.83;8.32;;;;;;;3.61;99.99;101754.13;5025376;28;20045;-51
2022/01/10 07:34:14;;;;;;;22.52;10.95;;;;;;;3.54;96.26;101765.88;5031545;28;20148;-53
2022/01/10 07:36:43;;;;;;;20.38;11.07;;;;;;;3.47;95.98;101768.53;5029539;28;20045;-50
2022/01/10 07:39:11;;;;;;;24.52;11.27;;;;;;;3.40;95.63;101773.03;5030892;28;20045;-51
2022/01/10 07:41:43;;;;;;;22.25;10.32;;;;;;;3.36;96.52;101775.28;5030542;28;20045;-51
2022/01/10 07:44:19;;;;;;;18.15;9.05;;;;;;;3.39;96.42;101777.63;5032911;28;20049;-51
2022/01/10 07:46:47;;;;;;;24.73;12.27;;;;;;;3.43;96.40;101786.13;5032378;28;20063;-50
2022/01/10 07:49:14;;;;;;;21.20;10.40;;;;;;;3.45;95.58;101788.63;5032697;28;20046;-54
2022/01/10 07:51:42;;;;;;;15.98;8.70;;;;;;;3.46;95.59;101795.66;5030982;28;20041;-51
2022/01/10 07:54:10;;;;;;;18.80;9.95;;;;;;;3.44;95.51;101803.97;5032401;28;20121;-50
2022/01/10 07:56:37;;;;;;;18.25;9.40;;;;;;;3.53;96.53;101808.16;5032125;28;20052;-47
2022/01/10 07:59:05;;;;;;;20.58;10.45;;;;;;;3.52;94.61;101811.06;5032627;28;20072;-52
2022/01/10 08:01:32;;;;;;;24.02;11.35;;;;;;;3.49;94.34;101816.81;5032178;28;20046;-50
2022/01/10 08:04:00;;;;;;;17.10;9.95;;;;;;;3.46;94.42;101819.91;5031797;28;20053;-54
2022/01/10 08:06:28;;;;;;;23.17;10.75;;;;;;;3.43;94.64;101829.22;5032388;28;20049;-53
2022/01/10 08:08:55;;;;;;;17.17;8.82;;;;;;;3.44;94.45;101830.91;5031963;28;20042;-51
2022/01/10 08:11:26;;;;;;;20.33;9.27;;;;;;;3.46;94.55;101838.78;5032256;28;20048;-52
2022/01/10 08:13:54;;;;;;;22.50;11.00;;;;;;;3.42;93.78;101839.16;5031839;28;20110;-52
2022/01/10 08:16:22;;;;;;;20.95;10.93;;;;;;;3.42;93.99;101836.47;5032290;28;20129;-52
2022/01/10 08:18:49;;;;;;;19.77;9.80;;;;;;;3.39;94.06;101849.50;5031991;28;20071;-51
2022/01/10 08:21:17;;;;;;;19.33;9.90;;;;;;;3.39;94.00;101858.44;5032355;28;20146;-52
2022/01/10 08:23:44;;;;;;;22.40;10.43;;;;;;;3.41;94.08;101866.28;5030753;28;20152;-52
2022/01/10 08:26:12;;;;;;;18.00;9.77;;;;;;;3.40;93.69;101860.06;5030902;28;20072;-52
2022/01/10 08:28:40;;;;;;;21.77;10.05;;;;;;;3.41;94.33;101864.44;5032483;28;20053;-54
2022/01/10 08:31:09;;;;;;;18.50;10.13;;;;;;;3.44;94.02;101878.53;5031842;28;20045;-52
2022/01/10 08:33:37;;;;;;;17.95;9.65;;;;;;;3.44;93.39;101874.00;5031641;28;20148;-52
2022/01/10 08:36:05;;;;;;;17.77;10.00;;;;;;;3.44;93.73;101894.69;5035299;28;20571;-51
2022/01/10 08:38:33;;;;;;;17.55;9.40;;;;;;;3.45;93.60;101899.09;5035694;28;20136;-50
2022/01/10 08:41:00;;;;;;;19.83;9.43;;;;;;;3.47;93.87;101910.50;5035923;28;20064;-53
2022/01/10 08:43:28;;;;;;;22.08;9.20;;;;;;;3.50;93.73;101908.25;5035427;28;20049;-50
2022/01/10 08:45:56;;;;;;;19.38;9.15;;;;;;;3.50;93.37;101921.72;5035756;28;20045;-46
2022/01/10 08:48:23;;;;;;;18.15;10.32;;;;;;;3.47;93.13;101921.28;5035345;28;20492;-50
2022/01/10 08:50:51;;;;;;;17.98;9.85;;;;;;;3.42;93.44;101925.38;5035355;28;20052;-51
2022/01/10 08:53:19;;;;;;;18.77;9.82;;;;;;;3.42;93.07;101935.31;5034553;28;20137;-52
2022/01/10 08:55:52;;;;;;;17.75;9.07;;;;;;;3.44;93.12;101935.97;5035246;28;20049;-53
2022/01/10 08:58:21;;;;;;;20.00;10.10;;;;;;;3.46;92.98;101941.16;5035136;28;20050;-52
2022/01/10 09:00:49;;;;;;;17.33;9.63;;;;;;;3.47;93.29;101953.59;5035128;28;20052;-51
2022/01/10 09:03:17;;;;;;;19.13;9.60;;;;;;;3.48;94.05;101949.88;5034719;28;20037;-51
2022/01/10 09:05:45;;;;;;;18.27;10.35;;;;;;;3.48;93.39;101960.66;5034935;28;20148;-50
2022/01/10 09:08:12;;;;;;;21.50;10.25;;;;;;;3.47;93.24;101959.00;5035020;28;20048;-55
2022/01/10 09:10:40;;;;;;;22.45;10.90;;;;;;;3.47;93.24;101967.09;5034818;28;20515;-52
2022/01/10 09:13:07;;;;;;;20.73;10.45;;;;;;;3.46;93.17;101973.47;5034026;28;20431;-50
2022/01/10 09:15:37;;;;;;;21.05;10.38;;;;;;;3.45;93.81;101977.22;5034996;28;20052;-50
2022/01/10 09:18:05;;;;;;;20.70;10.57;;;;;;;3.44;93.53;101980.91;5034877;28;20095;-55
2022/01/10 09:20:33;;;;;;;20.40;10.05;;;;;;;3.45;93.32;101977.22;5034625;28;20388;-52
2022/01/10 09:23:00;;;;;;;19.42;10.32;;;;;;;3.45;93.42;101985.28;5034766;28;20116;-50
2022/01/10 09:25:28;;;;;;;16.65;9.35;;;;;;;3.37;92.84;101987.09;5034526;28;20538;-51
2022/01/10 09:27:56;;;;;;;22.02;10.85;;;;;;;3.26;93.85;101984.88;5034583;28;20517;-50
2022/01/10 09:30:24;;;;;;;22.25;9.57;;;;;;;3.22;93.97;101986.28;5014833;28;20066;-52
2022/01/10 09:32:53;;;;;;;19.58;10.48;;;;;;;3.19;93.56;101983.97;5024138;28;20038;-53
2022/01/10 09:35:22;;;;;;;22.00;11.90;;;;;;;3.15;93.67;102001.53;5034649;28;20057;-51
2022/01/10 09:37:50;;;;;;;22.00;11.45;;;;;;;3.16;94.21;102001.34;5034377;28;20042;-50
2022/01/10 09:40:18;;;;;;;19.42;10.93;;;;;;;3.17;94.55;102005.69;5034802;28;20244;-52
2022/01/10 09:42:47;;;;;;;19.88;11.57;;;;;;;3.23;94.40;102001.44;5034279;28;20199;-55
2022/01/10 09:45:14;;;;;;;22.20;13.07;;;;;;;3.29;94.11;102008.75;5034482;28;20046;-52
2022/01/10 09:47:42;;;;;;;19.30;11.10;;;;;;;3.32;94.13;102008.38;5034246;28;20049;-54
2022/01/10 09:50:10;;;;;;;20.77;12.30;;;;;;;3.32;93.62;102016.47;5034281;28;20049;-55
2022/01/10 09:52:40;;;;;;;21.15;12.40;;;;;;;3.34;93.19;102019.81;5034553;28;20069;-53
2022/01/10 09:55:08;;;;;;;20.13;13.18;;;;;;;3.36;92.64;102025.81;5033747;28;20038;-53
2022/01/10 09:57:35;;;;;;;18.95;12.50;;;;;;;3.36;92.84;102033.06;5033773;28;20048;-52
2022/01/10 10:00:05;;;;;;;19.92;12.82;;;;;;;3.36;92.48;102033.06;5034394;28;20057;-53
2022/01/10 10:02:40;;;;;;;20.17;13.67;;;;;;;3.37;92.60;102035.56;4326733;28;10000728;-53
2022/01/10 10:05:11;;;;;;;19.52;13.43;;;;;;;3.39;93.01;102033.53;5032393;28;20050;-49
2022/01/10 10:07:40;;;;;;;19.55;14.40;;;;;;;3.41;91.78;102046.78;5032543;28;20052;-50
2022/01/10 10:10:11;;;;;;;18.17;12.13;;;;;;;3.39;92.49;102043.44;5031328;28;20044;-50
2022/01/10 10:12:41;;;;;;;17.95;11.18;;;;;;;3.42;92.13;102051.16;5031587;28;20095;-52
2022/01/10 10:15:12;;;;;;;20.15;12.57;;;;;;;3.45;93.10;102052.66;5031874;28;20045;-51
2022/01/10 10:17:40;;;;;;;16.65;12.13;;;;;;;3.42;92.57;102062.78;5032429;28;20053;-54
2022/01/10 10:20:23;;;;;;;15.95;10.32;;;;;;;3.44;93.12;102068.00;5032039;28;20053;-52
2022/01/10 10:23:14;;;;;;;20.15;13.02;;;;;;;3.50;92.81;102071.78;5031901;28;20046;-54
2022/01/10 10:25:55;;;;;;;18.50;13.70;;;;;;;3.51;92.47;102079.69;5031760;28;20041;-52
2022/01/10 10:28:22;;;;;;;23.20;13.82;;;;;;;3.51;92.56;102086.91;5031961;28;20156;-50
2022/01/10 10:30:56;;;;;;;18.17;12.02;;;;;;;3.53;91.92;102095.63;5031330;28;20041;-51
2022/01/10 10:33:25;;;;;;;18.30;13.10;;;;;;;3.52;92.30;102083.19;5031656;28;20057;-51
2022/01/10 10:35:59;;;;;;;23.38;13.65;;;;;;;3.53;92.47;102092.94;5031455;28;20111;-53
2022/01/10 10:38:27;;;;;;;17.50;11.70;;;;;;;3.58;92.56;102098.59;5030145;28;20038;-48
2022/01/10 10:40:58;;;;;;;17.35;11.82;;;;;;;3.54;92.33;102100.00;5031360;28;20774;-53
2022/01/10 10:43:28;;;;;;;15.73;10.82;;;;;;;3.53;92.51;102109.94;5030420;28;20140;-48
2022/01/10 10:46:00;;;;;;;17.48;11.40;;;;;;;3.58;92.65;102120.16;5031690;28;20050;-53
2022/01/10 10:48:30;;;;;;;18.08;13.45;;;;;;;3.56;93.46;102124.88;5030856;28;20049;-52
2022/01/10 10:51:01;;;;;;;20.15;13.90;;;;;;;3.49;93.46;102118.59;5031338;28;20393;-51
2022/01/10 10:53:30;;;;;;;19.10;13.63;;;;;;;3.47;93.70;102113.41;5009969;28;20054;-49
2022/01/10 10:56:00;;;;;;;17.33;12.27;;;;;;;3.46;93.41;102121.66;5010315;28;20045;-50
2022/01/10 10:58:35;;;;;;;21.55;14.52;;;;;;;3.40;93.54;102124.09;5022656;28;20037;-51
2022/01/10 11:01:04;;;;;;;18.50;13.35;;;;;;;3.33;93.96;102128.56;5028162;28;20046;-51
2022/01/10 11:03:32;;;;;;;18.45;13.93;;;;;;;3.29;94.92;102126.44;5026060;28;20250;-52
2022/01/10 11:06:03;;;;;;;16.55;12.85;;;;;;;3.26;95.20;102132.19;5032896;28;20049;-50
2022/01/10 11:08:33;;;;;;;21.80;13.65;;;;;;;3.22;94.72;102138.97;5033063;28;20139;-50
2022/01/10 11:11:01;;;;;;;20.92;14.50;;;;;;;3.18;95.26;102138.53;5033145;28;20037;-51
2022/01/10 11:13:30;;;;;;;18.25;13.27;;;;;;;3.17;95.59;102136.84;5032549;28;20045;-48
2022/01/10 11:15:59;;;;;;;21.10;13.63;;;;;;;3.22;96.58;102128.19;5032746;28;20516;-50
2022/01/10 11:18:27;;;;;;;18.58;13.60;;;;;;;3.30;96.47;102136.19;5032443;28;20037;-53
2022/01/10 11:20:55;;;;;;;20.67;14.23;;;;;;;3.35;96.46;102129.22;5031242;28;20033;-48
2022/01/10 11:23:40;;;;;;;40.65;25.27;;;;;;;3.45;96.13;102138.88;5030963;28;20065;-53
2022/01/10 11:26:09;;;;;;;25.58;19.27;;;;;;;3.54;96.13;102140.44;5032397;28;20053;-48
2022/01/10 11:28:55;;;;;;;22.65;14.63;;;;;;;3.57;95.12;102148.13;5014903;28;20438;-50
2022/01/10 11:31:27;;;;;;;44.83;28.30;;;;;;;3.64;96.14;102154.44;5031772;28;20563;-52
2022/01/10 11:33:56;;;;;;;36.38;22.55;;;;;;;3.68;95.77;102168.34;5032634;28;20053;-50
2022/01/10 11:36:26;;;;;;;27.23;18.40;;;;;;;3.70;95.61;102167.13;5031839;28;20052;-53
2022/01/10 11:38:56;;;;;;;20.23;15.55;;;;;;;3.70;94.56;102174.41;5031805;28;20037;-53
2022/01/10 11:41:25;;;;;;;17.95;13.93;;;;;;;3.62;94.21;102178.88;5032071;28;20506;-50
2022/01/10 11:44:04;;;;;;;21.00;13.98;;;;;;;3.60;94.53;102189.00;5032416;28;20072;-49